Flight Track Log - Related Links

Times and Time Zones

All times are in EDT time to prevent confusion due to time zone crossing. See the AAL1862 flight status page for this flight to view local times or setup timezone preferences in your user account.

Time Position Orientation Groundspeed Altitude Reporting Facility
EDT Latitude Longitude Course Direction KTS MPH feet Rate Location/Type
Fri 07:43:56 AM 32.8833 -97.0500 357° North 156 180 1,600  Level Dallas TRACON
Fri 07:45:21 AM 32.8000 -97.0667 190° South 242 278 4,200 2,276 Climbing Dallas TRACON
Fri 07:46:00 AM 32.8433 -96.8013 10° North  Level FlightAware
Fri 07:46:21 AM 32.7667 -97.1333 239° Southwest 271 312 7,100  Level Dallas TRACON
Fri 07:47:00 AM 32.9593 -96.8000 North  Level FlightAware
Fri 07:47:42 AM 32.8728 -97.1486 353° North 286 329 10,500  Level Fort Center
Fri 07:48:00 AM 33.0753 -96.8006 357° North  Level FlightAware
Fri 07:48:43 AM 32.9644 -97.1089 20° North 305 351 11,700  Level Fort Center
Fri 07:49:00 AM 33.1911 -96.8089 357° North  Level FlightAware
Fri 07:49:42 AM 33.0583 -97.0542 26° Northeast 339 390 14,200  Level Fort Center
Fri 07:50:42 AM 33.1603 -96.9942 26° Northeast 391 450 16,700 1,950 Climbing Fort Center
Fri 07:51:42 AM 33.2625 -96.9314 27° Northeast 407 468 18,100 2,050 Climbing Fort Center
Fri 07:52:42 AM 33.3667 -96.8589 30° Northeast 421 484 20,800 2,100 Climbing Fort Center
Fri 07:53:42 AM 33.4497 -96.7861 36° Northeast 421 484 22,300 1,600 Climbing Fort Center
Fri 07:54:42 AM 33.5639 -96.6906 35° Northeast 427 491 24,000 1,700 Climbing Fort Center
Fri 07:55:42 AM 33.6658 -96.6047 35° Northeast 440 506 25,700 1,450 Climbing Fort Center
Fri 07:56:42 AM 33.7694 -96.5164 35° Northeast 450 518 26,900 1,300 Climbing Fort Center
Fri 07:57:42 AM 33.8794 -96.4278 34° Northeast 455 524 28,300 1,041 Climbing Fort Center
Fri 07:58:43 AM 33.9872 -96.3364 35° Northeast 465 535 29,000 350 Climbing Fort Center
Fri 07:59:42 AM 34.0928 -96.2472 35° Northeast 465 535 29,000  Level Fort Center
Fri 08:00:42 AM 34.1922 -96.1606 36° Northeast 460 529 29,000  Level Fort Center
Fri 08:01:42 AM 34.2997 -96.0686 35° Northeast 460 529 29,000  Level Fort Center
Fri 08:02:42 AM 34.4050 -95.9764 36° Northeast 460 529 29,000  Level Fort Center
Fri 08:03:42 AM 34.5106 -95.8864 35° Northeast 460 529 29,000  Level Fort Center
Fri 08:04:42 AM 34.6178 -95.7936 35° Northeast 460 529 29,000  Level Fort Center
Fri 08:05:42 AM 34.7250 -95.7006 35° Northeast 466 536 29,000  Level Fort Center
Fri 08:06:42 AM 34.8322 -95.6100 35° Northeast 466 536 29,000  Level Fort Center
Fri 08:07:42 AM 34.9414 -95.5189 34° Northeast 466 536 29,000  Level Fort Center
Fri 08:09:36 AM 35.1297 -95.3503 36° Northeast 467 537 29,000  Level Kansas Center
Fri 08:10:37 AM 35.2361 -95.2569 36° Northeast 470 541 29,000  Level Kansas Center
Fri 08:11:38 AM 35.3417 -95.1644 36° Northeast 468 539 29,000  Level Kansas Center
Fri 08:12:39 AM 35.4478 -95.0711 36° Northeast 470 541 29,000  Level Kansas Center
Fri 08:13:43 AM 35.5753 -94.9592 36° Northeast 467 537 29,000  Level Memphis Center
Fri 08:14:43 AM 35.6789 -94.8653 36° Northeast 467 537 29,000  Level Memphis Center
Fri 08:15:43 AM 35.7867 -94.7689 36° Northeast 467 537 29,000  Level Memphis Center
Fri 08:16:43 AM 35.8942 -94.6772 35° Northeast 467 537 29,000  Level Memphis Center
Fri 08:17:43 AM 35.9975 -94.5825 37° Northeast 467 537 29,000  Level Memphis Center
Fri 08:18:43 AM 36.1028 -94.4903 35° Northeast 467 537 29,000  Level Memphis Center
Fri 08:19:43 AM 36.2058 -94.3953 37° Northeast 467 537 29,000  Level Memphis Center
Fri 08:20:50 AM 36.3081 -94.3031 36° Northeast 464 534 29,000  Level Kansas Center
Fri 08:21:51 AM 36.4128 -94.2069 36° Northeast 466 536 29,000  Level Kansas Center
Fri 08:22:52 AM 36.5389 -94.0933 36° Northeast 467 537 29,000  Level Kansas Center
Fri 08:23:54 AM 36.6433 -93.9989 36° Northeast 465 535 29,000  Level Kansas Center
Fri 08:24:55 AM 36.7458 -93.9031 37° Northeast 462 532 29,000  Level Kansas Center
Fri 08:25:56 AM 36.8517 -93.8058 36° Northeast 468 539 29,000  Level Kansas Center
Fri 08:26:57 AM 36.9572 -93.7050 37° Northeast 462 532 29,000  Level Kansas Center
Fri 08:28:00 AM 37.0619 -93.6067 37° Northeast 466 536 29,000  Level Kansas Center
Fri 08:29:00 AM 37.1672 -93.5114 36° Northeast 466 536 29,000  Level Kansas Center
Fri 08:30:02 AM 37.2733 -93.4153 36° Northeast 468 539 29,000  Level Kansas Center
Fri 08:31:03 AM 37.3756 -93.3158 38° Northeast 465 535 29,000  Level Kansas Center
Fri 08:32:04 AM 37.4683 -93.2044 44° Northeast 461 531 29,000  Level Kansas Center
Fri 08:33:06 AM 37.5617 -93.0933 43° Northeast 461 531 29,000  Level Kansas Center
Fri 08:34:07 AM 37.6581 -92.9842 42° Northeast 463 533 29,000  Level Kansas Center
Fri 08:35:08 AM 37.7508 -92.8717 44° Northeast 462 532 29,000  Level Kansas Center
Fri 08:36:10 AM 37.8592 -92.7447 43° Northeast 459 528 29,000  Level Kansas Center
Fri 08:37:11 AM 37.9522 -92.6347 43° Northeast 459 528 29,000  Level Kansas Center
Fri 08:38:12 AM 38.0458 -92.5239 43° Northeast 463 533 29,000  Level Kansas Center
Fri 08:39:14 AM 38.1414 -92.4144 42° Northeast 463 533 29,000  Level Kansas Center
Fri 08:40:15 AM 38.2422 -92.2867 45° Northeast 458 527 29,000  Level Kansas Center
Fri 08:41:16 AM 38.3342 -92.1750 44° Northeast 455 524 29,000 -829 Level Kansas Center
Fri 08:42:18 AM 38.4269 -92.0625 44° Northeast 456 525 27,300 -2,146 Descending Kansas Center
Fri 08:43:19 AM 38.5164 -91.9533 44° Northeast 448 516 24,600 -2,780 Descending Kansas Center
Fri 08:44:21 AM 38.6047 -91.8475 43° Northeast 437 503 21,600 -2,683 Descending Kansas Center
Fri 08:45:22 AM 38.6850 -91.7372 47° Northeast 425 489 19,100 -2,683 Descending Kansas Center
Fri 08:46:24 AM 38.6989 -91.6011 83° East 389 448 16,100 -2,683 Descending Kansas Center
Fri 08:47:25 AM 38.6917 -91.4664 94° East 380 437 13,600 -2,293 Descending Kansas Center
Fri 08:48:27 AM 38.6931 -91.3356 89° East 361 415 11,400 -1,268 Descending Kansas Center
Fri 08:49:28 AM 38.6947 -91.2142 89° East 346 398 11,000 -195 Descending Kansas Center
Fri 08:50:30 AM 38.6944 -91.0922 90° East 344 396 11,000 -387 Level Kansas Center
Fri 08:51:32 AM 38.7186 -90.9831 74° East 318 366 10,200 -1,122 Descending Kansas Center
Fri 08:52:33 AM 38.7425 -90.8822 73° East 300 345 8,700 -1,707 Descending Kansas Center
Fri 08:53:35 AM 38.7958 -90.7825 56° Northeast 290 334 6,700 -1,805 Descending Kansas Center
Fri 08:54:36 AM 38.8178 -90.6908 73° East 284 327 5,000 -1,561 Descending Kansas Center
Fri 08:55:38 AM 38.8169 -90.5883 91° East 287 330 3,500 -1,452 Descending Kansas Center

Login

Don't have an account? Register now (free) for customized features, flight alerts, and more!